GMMX/RAK METAR and TAF weather

Enter ICAO airport designator
Station Type Date Time Source
GMMX METAR 2020/04/10 20:00 UTC NOAA

GMMX 102000Z 02011KT 340V050 9999 SCT093 22/11 Q1016 NOSIG


Station Type Date Time Source
GMMX Decoded METAR 2020/04/10 20:00 UTC NOAA

Marrakech, Morocco (GMMX) 31-37N 008-02W 466M
Apr 10, 2020 - 04:00 PM EDT / 2020.04.10 2000 UTC
Wind: from the NNE (020 degrees) at 13 MPH (11 KT) (direction variable):0
Visibility: greater than 7 mile(s):0
Sky conditions: partly cloudy
Temperature: 71 F (22 C)
Dew Point: 51 F (11 C)
Relative Humidity: 49%
Pressure (altimeter): 30.00 in. Hg (1016 hPa)
ob: GMMX 102000Z 02011KT 340V050 9999 SCT093 22/11 Q1016 NOSIG
cycle: 20

Station Type Date Time Source
GMMX TAF 2020/04/10 18:43 UTC NOAA

TAF GMMX 101700Z 1018/1124 06006KT 8000 NSC

Example: see airport list